Time;durP1;ratioP1;P1;durP2;ratioP2;P2;SDS_P1;SDS_P2;PMS_P1;PMS_P2;Temp;Humidity;BMP_temperature;BMP_pressure;BME280_temperature;BME280_humidity;BME280_pressure;Samples;Min_cycle;Max_cycle;Signal;HPM_P1;HPM_P2
2022/11/26 00:02:25;;;;;;;14.77;6.15;;;;;;;;;;5240864;28;20028;-75
2022/11/26 00:04:57;;;;;;;12.93;5.70;;;;;;;;;;5240819;28;20043;-74
2022/11/26 00:07:29;;;;;;;12.45;5.55;;;;;;;;;;5239989;28;20051;-75
2022/11/26 00:10:01;;;;;;;16.30;5.88;;;;;;;;;;5240549;28;20108;-75
2022/11/26 00:12:33;;;;;;;13.10;5.57;;;;;;;;;;5240556;28;20017;-74
2022/11/26 00:15:15;;;;;;;12.77;6.00;;;;;;;;;;5240363;28;20124;-75
2022/11/26 00:17:47;;;;;;;11.55;5.53;;;;;;;;;;5240102;28;20420;-75
2022/11/26 00:20:20;;;;;;;14.95;6.57;;;;;;;;;;5239985;28;20595;-75
2022/11/26 00:22:53;;;;;;;12.90;6.13;;;;;;;;;;5240420;28;20079;-75
2022/11/26 00:25:26;;;;;;;12.35;5.35;;;;;;;;;;5240580;28;20507;-75
2022/11/26 00:27:57;;;;;;;13.10;5.80;;;;;;;;;;5239648;28;20021;-74
2022/11/26 00:30:29;;;;;;;14.98;5.72;;;;;;;;;;5240358;28;20025;-75
2022/11/26 00:33:00;;;;;;;12.02;4.95;;;;;;;;;;5240100;28;20037;-75
2022/11/26 00:35:31;;;;;;;12.43;5.97;;;;;;;;;;5239635;28;20017;-75
2022/11/26 00:38:02;;;;;;;11.23;5.03;;;;;;;;;;5240036;28;20029;-76
2022/11/26 00:40:33;;;;;;;13.95;5.35;;;;;;;;;;5240464;28;20385;-75
2022/11/26 00:43:05;;;;;;;13.00;5.63;;;;;;;;;;5239314;28;20021;-74
2022/11/26 00:45:36;;;;;;;14.10;4.95;;;;;;;;;;5240430;28;20043;-75
2022/11/26 00:48:07;;;;;;;12.73;5.18;;;;;;;;;;5239278;28;20025;-75
2022/11/26 00:50:40;;;;;;;18.58;6.47;;;;;;;;;;5239776;28;20364;-76
2022/11/26 00:53:13;;;;;;;14.80;6.38;;;;;;;;;;5240326;28;20017;-75
2022/11/26 00:55:45;;;;;;;14.15;6.03;;;;;;;;;;5238899;28;20013;-76
2022/11/26 00:58:24;;;;;;;14.15;6.40;;;;;;;;;;5240205;28;20033;-74
2022/11/26 01:00:56;;;;;;;15.25;6.10;;;;;;;;;;5240139;28;20021;-74
2022/11/26 01:03:28;;;;;;;13.75;6.50;;;;;;;;;;5239204;28;20026;-75
2022/11/26 01:05:59;;;;;;;13.68;5.72;;;;;;;;;;5239948;28;20020;-75
2022/11/26 01:08:33;;;;;;;13.60;5.68;;;;;;;;;;5239836;28;20030;-75
2022/11/26 01:11:04;;;;;;;15.52;5.43;;;;;;;;;;5239284;28;20465;-75
2022/11/26 01:13:35;;;;;;;15.23;6.60;;;;;;;;;;5239895;28;20029;-75
2022/11/26 01:16:32;;;;;;;13.05;5.75;;;;;;;;;;5239082;28;20033;-75
2022/11/26 01:19:04;;;;;;;13.88;5.78;;;;;;;;;;5234927;28;20049;-75
2022/11/26 01:21:36;;;;;;;14.55;5.57;;;;;;;;;;5239938;28;20036;-75
2022/11/26 01:24:07;;;;;;;15.85;5.70;;;;;;;;;;5239449;28;20017;-75
2022/11/26 01:26:40;;;;;;;14.98;6.38;;;;;;;;;;5239522;28;20156;-75
2022/11/26 01:29:15;;;;;;;14.65;5.65;;;;;;;;;;5239817;28;20112;-75
2022/11/26 01:31:46;;;;;;;12.35;5.55;;;;;;;;;;5238566;28;20021;-75
2022/11/26 01:34:17;;;;;;;14.93;6.00;;;;;;;;;;5239835;28;20390;-74
2022/11/26 01:36:48;;;;;;;13.85;5.05;;;;;;;;;;5239403;28;20026;-74
2022/11/26 01:39:21;;;;;;;11.30;5.14;;;;;;;;;;5239118;28;20164;-73
2022/11/26 01:42:11;;;;;;;11.50;5.07;;;;;;;;;;5239781;28;20022;-74
2022/11/26 01:44:42;;;;;;;14.38;5.20;;;;;;;;;;5238715;28;20052;-74
2022/11/26 01:47:18;;;;;;;12.32;5.28;;;;;;;;;;5239922;28;20061;-74
2022/11/26 01:50:08;;;;;;;16.83;6.68;;;;;;;;;;5239183;28;20476;-74
2022/11/26 01:52:39;;;;;;;13.95;5.43;;;;;;;;;;5238462;28;20029;-75
2022/11/26 01:55:13;;;;;;;13.43;6.55;;;;;;;;;;5239817;28;20527;-74
2022/11/26 01:57:44;;;;;;;14.32;6.25;;;;;;;;;;5239061;28;20034;-74
2022/11/26 02:00:16;;;;;;;15.40;6.18;;;;;;;;;;5239457;28;20013;-74
2022/11/26 02:02:47;;;;;;;12.60;6.03;;;;;;;;;;5239244;28;20021;-75
2022/11/26 02:05:23;;;;;;;12.85;5.80;;;;;;;;;;5242761;28;20109;-75
2022/11/26 02:07:55;;;;;;;17.13;6.03;;;;;;;;;;5243038;28;20025;-74
2022/11/26 02:10:26;;;;;;;14.20;6.60;;;;;;;;;;5243093;28;20021;-74
2022/11/26 02:12:58;;;;;;;12.70;5.60;;;;;;;;;;5241950;28;20026;-74
2022/11/26 02:15:33;;;;;;;13.60;6.70;;;;;;;;;;5243124;28;20468;-74
2022/11/26 02:18:05;;;;;;;16.38;6.45;;;;;;;;;;5242827;28;20026;-74
2022/11/26 02:20:37;;;;;;;18.08;6.20;;;;;;;;;;5242018;28;20048;-74
2022/11/26 02:23:08;;;;;;;17.30;6.72;;;;;;;;;;5242690;28;20517;-74
2022/11/26 02:25:54;;;;;;;12.02;5.97;;;;;;;;;;5242796;28;20463;-74
2022/11/26 02:28:25;;;;;;;14.20;6.53;;;;;;;;;;5241942;28;20017;-74
2022/11/26 02:31:01;;;;;;;14.57;6.40;;;;;;;;;;5242626;28;20032;-74
2022/11/26 02:33:38;;;;;;;17.30;7.40;;;;;;;;;;5241565;28;20079;-74
2022/11/26 02:36:18;;;;;;;14.00;5.85;;;;;;;;;;5243304;28;20083;-74
2022/11/26 02:38:49;;;;;;;20.48;6.63;;;;;;;;;;5242015;28;20033;-74
2022/11/26 02:41:21;;;;;;;16.70;6.30;;;;;;;;;;5241497;28;20067;-73
2022/11/26 02:43:52;;;;;;;12.45;5.53;;;;;;;;;;5242301;28;20396;-74
2022/11/26 02:46:23;;;;;;;15.35;5.93;;;;;;;;;;5242494;28;20089;-74
2022/11/26 02:48:54;;;;;;;15.13;5.88;;;;;;;;;;5241523;28;20028;-73
2022/11/26 02:51:26;;;;;;;16.20;5.90;;;;;;;;;;5242165;28;20029;-74
2022/11/26 02:53:58;;;;;;;19.20;6.22;;;;;;;;;;5242209;28;20507;-74
2022/11/26 02:56:30;;;;;;;16.17;6.13;;;;;;;;;;5241171;28;20091;-73
2022/11/26 02:59:01;;;;;;;18.55;7.10;;;;;;;;;;5241923;28;20079;-74
2022/11/26 03:01:38;;;;;;;17.05;6.97;;;;;;;;;;5241370;28;20425;-74
2022/11/26 03:04:14;;;;;;;12.48;6.00;;;;;;;;;;5242252;28;20484;-74
2022/11/26 03:06:46;;;;;;;15.15;5.80;;;;;;;;;;5242063;28;20025;-74
2022/11/26 03:09:17;;;;;;;14.13;6.13;;;;;;;;;;5241569;28;20376;-74
2022/11/26 03:11:48;;;;;;;12.82;5.22;;;;;;;;;;5241567;28;20044;-74
2022/11/26 03:14:20;;;;;;;17.63;6.25;;;;;;;;;;5241837;28;20037;-74
2022/11/26 03:16:51;;;;;;;16.30;6.22;;;;;;;;;;5240862;28;20026;-74
2022/11/26 03:19:22;;;;;;;15.58;6.04;;;;;;;;;;5241537;28;20033;-75
2022/11/26 03:21:53;;;;;;;16.05;6.10;;;;;;;;;;5241853;28;20025;-75
2022/11/26 03:24:24;;;;;;;15.56;5.40;;;;;;;;;;5240955;28;20099;-75
2022/11/26 03:26:55;;;;;;;12.77;5.68;;;;;;;;;;5241676;28;20032;-74
2022/11/26 03:29:27;;;;;;;14.50;5.47;;;;;;;;;;5241990;28;20025;-75
2022/11/26 03:31:58;;;;;;;12.15;5.28;;;;;;;;;;5240578;28;20021;-74
2022/11/26 03:34:29;;;;;;;18.08;5.28;;;;;;;;;;5241038;28;20174;-74
2022/11/26 03:37:00;;;;;;;16.98;5.53;;;;;;;;;;5240638;28;20419;-75
2022/11/26 03:39:31;;;;;;;13.15;5.47;;;;;;;;;;5241340;28;20044;-75
2022/11/26 03:42:03;;;;;;;10.13;4.63;;;;;;;;;;5241090;28;20024;-75
2022/11/26 03:44:34;;;;;;;13.25;5.32;;;;;;;;;;5240620;28;20049;-74
2022/11/26 03:47:05;;;;;;;14.43;6.38;;;;;;;;;;5241127;28;20025;-74
2022/11/26 03:49:36;;;;;;;19.48;6.13;;;;;;;;;;5240992;28;20025;-74
2022/11/26 03:52:08;;;;;;;15.63;4.93;;;;;;;;;;5240093;28;20075;-75
2022/11/26 03:54:39;;;;;;;12.60;5.30;;;;;;;;;;5240360;28;20032;-75
2022/11/26 03:57:10;;;;;;;10.70;4.35;;;;;;;;;;5241157;28;20372;-75
2022/11/26 03:59:41;;;;;;;13.82;5.88;;;;;;;;;;5239948;28;20021;-75
2022/11/26 04:02:13;;;;;;;11.55;4.63;;;;;;;;;;5241237;28;20032;-75
2022/11/26 04:04:44;;;;;;;14.02;5.18;;;;;;;;;;5239740;28;20029;-75
2022/11/26 04:07:15;;;;;;;11.23;5.20;;;;;;;;;;5241032;28;20516;-75
2022/11/26 04:09:46;;;;;;;16.78;6.66;;;;;;;;;;5240561;28;20146;-75
2022/11/26 04:12:17;;;;;;;13.84;5.10;;;;;;;;;;5240382;28;20028;-75
2022/11/26 04:14:48;;;;;;;12.30;4.72;;;;;;;;;;5240382;28;20028;-75
2022/11/26 04:17:20;;;;;;;12.10;4.80;;;;;;;;;;5240899;28;20027;-75
2022/11/26 04:19:51;;;;;;;13.98;5.05;;;;;;;;;;5239621;28;20052;-74
2022/11/26 04:22:22;;;;;;;15.13;5.68;;;;;;;;;;5240714;28;20036;-74
2022/11/26 04:24:53;;;;;;;16.27;4.78;;;;;;;;;;5240598;28;20095;-75
2022/11/26 04:27:24;;;;;;;15.66;4.60;;;;;;;;;;5239001;28;20025;-75
2022/11/26 04:29:56;;;;;;;15.45;5.07;;;;;;;;;;5240406;28;20107;-75
2022/11/26 04:32:27;;;;;;;16.52;5.10;;;;;;;;;;5240124;28;20020;-73
2022/11/26 04:34:58;;;;;;;14.18;4.57;;;;;;;;;;5239764;28;20045;-74
2022/11/26 04:37:29;;;;;;;14.96;4.82;;;;;;;;;;5240296;28;20047;-74
2022/11/26 04:40:00;;;;;;;18.10;5.15;;;;;;;;;;5239478;28;20026;-75
2022/11/26 04:42:32;;;;;;;11.02;4.57;;;;;;;;;;5240297;28;20104;-75
2022/11/26 04:45:03;;;;;;;11.50;3.75;;;;;;;;;;5240101;28;20018;-75
2022/11/26 04:47:34;;;;;;;14.25;4.63;;;;;;;;;;5239321;28;20021;-75
2022/11/26 04:50:06;;;;;;;10.82;4.30;;;;;;;;;;5240271;28;20013;-75
2022/11/26 04:52:37;;;;;;;15.95;5.13;;;;;;;;;;5240157;28;20037;-76
2022/11/26 04:55:08;;;;;;;9.68;3.97;;;;;;;;;;5239373;28;20033;-74
2022/11/26 04:57:41;;;;;;;14.82;5.93;;;;;;;;;;5239653;28;20432;-75
2022/11/26 05:00:12;;;;;;;16.80;5.15;;;;;;;;;;5240271;28;20060;-76
2022/11/26 05:02:44;;;;;;;13.65;5.20;;;;;;;;;;5238974;28;20059;-75
2022/11/26 05:05:15;;;;;;;17.35;5.28;;;;;;;;;;5240377;28;20026;-75
2022/11/26 05:07:46;;;;;;;15.35;4.82;;;;;;;;;;5238999;28;20026;-73
2022/11/26 05:10:17;;;;;;;10.98;4.02;;;;;;;;;;5239805;28;20111;-74
2022/11/26 05:12:49;;;;;;;13.77;4.78;;;;;;;;;;5239786;28;20040;-75
2022/11/26 05:15:20;;;;;;;16.13;6.40;;;;;;;;;;5239196;28;20052;-74
2022/11/26 05:17:51;;;;;;;13.52;4.30;;;;;;;;;;5239720;28;20068;-74
2022/11/26 05:20:23;;;;;;;11.54;4.82;;;;;;;;;;5239796;28;20045;-74
2022/11/26 05:22:54;;;;;;;17.27;5.15;;;;;;;;;;5239189;28;20037;-74
2022/11/26 05:25:25;;;;;;;12.74;4.62;;;;;;;;;;5239825;28;20080;-74
2022/11/26 05:27:56;;;;;;;11.05;4.47;;;;;;;;;;5239685;28;20028;-73
2022/11/26 05:30:27;;;;;;;14.10;4.72;;;;;;;;;;5239081;28;20376;-74
2022/11/26 05:32:58;;;;;;;10.15;3.88;;;;;;;;;;5239340;28;20111;-74
2022/11/26 05:35:30;;;;;;;12.60;4.43;;;;;;;;;;5239685;28;20044;-74
2022/11/26 05:38:01;;;;;;;12.02;4.10;;;;;;;;;;5240874;28;20022;-74
2022/11/26 05:40:32;;;;;;;13.68;4.90;;;;;;;;;;5243757;28;20017;-74
2022/11/26 05:43:03;;;;;;;11.88;4.10;;;;;;;;;;5243473;28;20112;-74
2022/11/26 05:45:34;;;;;;;12.77;4.35;;;;;;;;;;5243040;28;20028;-74
2022/11/26 05:48:05;;;;;;;10.13;3.90;;;;;;;;;;5243322;28;20072;-74
2022/11/26 05:50:37;;;;;;;16.70;5.60;;;;;;;;;;5242548;28;20109;-73
2022/11/26 05:53:08;;;;;;;9.48;4.35;;;;;;;;;;5243429;28;20361;-74
2022/11/26 05:55:39;;;;;;;11.85;4.15;;;;;;;;;;5243122;28;20072;-75
2022/11/26 05:58:10;;;;;;;14.23;4.63;;;;;;;;;;5242833;28;20029;-75
2022/11/26 06:00:41;;;;;;;15.82;4.30;;;;;;;;;;5243041;28;20043;-75
2022/11/26 06:03:12;;;;;;;14.46;4.84;;;;;;;;;;5243672;28;20039;-75
2022/11/26 06:05:44;;;;;;;13.80;4.98;;;;;;;;;;5242071;28;20067;-75
2022/11/26 06:08:15;;;;;;;14.95;5.07;;;;;;;;;;5243319;28;20017;-75
2022/11/26 06:10:46;;;;;;;12.65;4.28;;;;;;;;;;5242891;28;20031;-74
2022/11/26 06:13:17;;;;;;;9.45;4.00;;;;;;;;;;5242686;28;20116;-75
2022/11/26 06:15:49;;;;;;;12.50;4.55;;;;;;;;;;5242685;28;20018;-73
2022/11/26 06:18:20;;;;;;;15.65;4.55;;;;;;;;;;5242199;28;20088;-74
2022/11/26 06:20:51;;;;;;;13.68;4.45;;;;;;;;;;5242802;28;20037;-74
2022/11/26 06:23:22;;;;;;;10.63;4.32;;;;;;;;;;5242855;28;20037;-75
2022/11/26 06:25:54;;;;;;;11.25;4.28;;;;;;;;;;5242240;28;20018;-75
2022/11/26 06:28:25;;;;;;;10.10;4.05;;;;;;;;;;5242926;28;20036;-76
2022/11/26 06:30:56;;;;;;;12.50;4.47;;;;;;;;;;5242624;28;20021;-75
2022/11/26 06:33:27;;;;;;;16.73;4.78;;;;;;;;;;5241851;28;20107;-75
2022/11/26 06:35:59;;;;;;;11.40;3.65;;;;;;;;;;5242416;28;20040;-75
2022/11/26 06:38:31;;;;;;;13.25;4.70;;;;;;;;;;5242546;28;20508;-75
2022/11/26 06:41:04;;;;;;;13.00;4.28;;;;;;;;;;5241634;28;20026;-75
2022/11/26 06:43:35;;;;;;;12.23;4.28;;;;;;;;;;5242375;28;20032;-75
2022/11/26 06:46:08;;;;;;;10.70;3.15;;;;;;;;;;5242573;28;20029;-75
2022/11/26 06:48:39;;;;;;;13.25;3.50;;;;;;;;;;5240602;28;20108;-75
2022/11/26 06:51:11;;;;;;;11.48;4.20;;;;;;;;;;5242432;28;20532;-75
2022/11/26 06:53:42;;;;;;;9.55;3.67;;;;;;;;;;5240866;28;20049;-75
2022/11/26 06:56:15;;;;;;;14.63;4.38;;;;;;;;;;5242146;28;20453;-75
2022/11/26 06:58:47;;;;;;;10.77;4.55;;;;;;;;;;5241664;28;20029;-76
2022/11/26 07:01:19;;;;;;;12.48;4.07;;;;;;;;;;5241512;28;20472;-75
2022/11/26 07:03:51;;;;;;;13.68;4.38;;;;;;;;;;5241204;28;20021;-75
2022/11/26 07:06:24;;;;;;;19.35;5.25;;;;;;;;;;5241490;28;20354;-75
2022/11/26 07:08:56;;;;;;;13.65;5.05;;;;;;;;;;5241096;28;20393;-75
2022/11/26 07:11:27;;;;;;;15.20;5.68;;;;;;;;;;5241681;28;20018;-75
2022/11/26 07:14:00;;;;;;;14.24;4.92;;;;;;;;;;5241493;28;20526;-75
2022/11/26 07:16:31;;;;;;;13.02;4.00;;;;;;;;;;5240821;28;20385;-75
2022/11/26 07:19:02;;;;;;;16.90;4.70;;;;;;;;;;5241420;28;20033;-75
2022/11/26 07:21:33;;;;;;;15.55;5.05;;;;;;;;;;5241703;28;20014;-75
2022/11/26 07:24:05;;;;;;;17.35;4.82;;;;;;;;;;5240927;28;20034;-75
2022/11/26 07:26:36;;;;;;;17.52;4.65;;;;;;;;;;5241484;28;20017;-75
2022/11/26 07:29:07;;;;;;;14.65;4.68;;;;;;;;;;5240702;28;20168;-74
2022/11/26 07:31:38;;;;;;;10.77;4.22;;;;;;;;;;5241114;28;20028;-75
2022/11/26 07:34:09;;;;;;;17.55;5.15;;;;;;;;;;5241341;28;20057;-75
2022/11/26 07:36:42;;;;;;;12.27;5.50;;;;;;;;;;5240252;28;20022;-75
2022/11/26 07:39:13;;;;;;;17.90;4.97;;;;;;;;;;5241566;28;20377;-75
2022/11/26 07:41:44;;;;;;;14.40;5.40;;;;;;;;;;5240858;28;20026;-75
2022/11/26 07:44:15;;;;;;;16.20;5.93;;;;;;;;;;5241108;28;20028;-75
2022/11/26 07:46:47;;;;;;;17.88;5.85;;;;;;;;;;5241065;28;20014;-74
2022/11/26 07:49:18;;;;;;;12.90;4.40;;;;;;;;;;5241589;28;20048;-74
2022/11/26 07:51:49;;;;;;;18.45;6.07;;;;;;;;;;5239991;28;20022;-74
2022/11/26 07:54:20;;;;;;;12.30;5.57;;;;;;;;;;5241345;28;20056;-75
2022/11/26 07:56:51;;;;;;;12.85;5.57;;;;;;;;;;5240562;28;20034;-75
2022/11/26 07:59:22;;;;;;;14.04;6.42;;;;;;;;;;5241119;28;20132;-75
2022/11/26 08:01:53;;;;;;;15.40;6.63;;;;;;;;;;5240069;28;20020;-74
2022/11/26 08:04:25;;;;;;;15.62;6.68;;;;;;;;;;5240131;28;20441;-74
2022/11/26 08:06:56;;;;;;;16.96;6.58;;;;;;;;;;5241075;28;20571;-75
2022/11/26 08:09:27;;;;;;;13.88;6.18;;;;;;;;;;5241672;28;20538;-75
2022/11/26 08:11:58;;;;;;;17.63;6.82;;;;;;;;;;5248637;28;20503;-74
2022/11/26 08:14:29;;;;;;;16.65;6.25;;;;;;;;;;5243529;28;20020;-74
2022/11/26 08:17:01;;;;;;;18.30;6.63;;;;;;;;;;5240680;28;20022;-74
2022/11/26 08:19:32;;;;;;;14.60;6.07;;;;;;;;;;5239956;28;20057;-75
2022/11/26 08:22:03;;;;;;;14.27;6.18;;;;;;;;;;5240598;28;20056;-74
2022/11/26 08:24:34;;;;;;;14.40;5.82;;;;;;;;;;5240337;28;20025;-74
2022/11/26 08:27:05;;;;;;;15.65;5.18;;;;;;;;;;5239615;28;20404;-75
2022/11/26 08:29:37;;;;;;;16.40;7.43;;;;;;;;;;5240378;28;20025;-75
2022/11/26 08:32:08;;;;;;;12.88;6.22;;;;;;;;;;5239429;28;20053;-75
2022/11/26 08:34:39;;;;;;;11.48;5.25;;;;;;;;;;5239909;28;20437;-75
2022/11/26 08:37:10;;;;;;;13.02;5.82;;;;;;;;;;5240699;28;20358;-75
2022/11/26 08:39:41;;;;;;;13.32;6.60;;;;;;;;;;5239077;28;20041;-75
2022/11/26 08:42:12;;;;;;;16.34;6.16;;;;;;;;;;5240494;28;20117;-74
2022/11/26 08:44:44;;;;;;;14.27;5.72;;;;;;;;;;5239795;28;20027;-75
2022/11/26 08:47:15;;;;;;;15.25;5.95;;;;;;;;;;5239970;28;20583;-76
2022/11/26 08:49:48;;;;;;;19.52;5.88;;;;;;;;;;5239896;28;20022;-74
2022/11/26 08:52:19;;;;;;;13.30;5.70;;;;;;;;;;5240353;28;20052;-74
2022/11/26 08:54:50;;;;;;;13.82;5.00;;;;;;;;;;5238761;28;20049;-75
2022/11/26 08:57:21;;;;;;;11.18;4.90;;;;;;;;;;5222842;28;20030;-74
2022/11/26 08:59:54;;;;;;;19.58;6.75;;;;;;;;;;5219655;28;20028;-74
2022/11/26 09:02:26;;;;;;;15.27;5.88;;;;;;;;;;5218715;28;20018;-75
2022/11/26 09:04:57;;;;;;;18.73;6.45;;;;;;;;;;5219290;28;20095;-74
2022/11/26 09:07:28;;;;;;;17.15;5.90;;;;;;;;;;5218403;28;20032;-74
2022/11/26 09:09:59;;;;;;;18.20;6.55;;;;;;;;;;5219113;28;20022;-73
2022/11/26 09:12:30;;;;;;;14.73;5.70;;;;;;;;;;5220084;28;20465;-74
2022/11/26 09:15:01;;;;;;;14.98;5.80;;;;;;;;;;5222645;28;20449;-74
2022/11/26 09:17:33;;;;;;;13.93;6.13;;;;;;;;;;5223322;28;20033;-75
2022/11/26 09:20:04;;;;;;;17.23;5.72;;;;;;;;;;5223430;28;20507;-74
2022/11/26 09:22:35;;;;;;;13.07;5.60;;;;;;;;;;5222346;28;20018;-74
2022/11/26 09:25:07;;;;;;;14.75;5.22;;;;;;;;;;5222815;28;20072;-74
2022/11/26 09:27:38;;;;;;;16.48;4.47;;;;;;;;;;5223050;28;20512;-73
2022/11/26 09:30:11;;;;;;;17.67;5.88;;;;;;;;;;5222446;28;20022;-73
2022/11/26 09:32:42;;;;;;;15.48;5.25;;;;;;;;;;5222829;28;20401;-73
2022/11/26 09:35:14;;;;;;;14.72;4.84;;;;;;;;;;5222762;28;20030;-74
2022/11/26 09:37:45;;;;;;;16.10;5.72;;;;;;;;;;5222428;28;20072;-71
2022/11/26 09:40:17;;;;;;;13.20;4.57;;;;;;;;;;5223206;28;20089;-75
2022/11/26 09:42:48;;;;;;;14.10;5.20;;;;;;;;;;5221510;28;20386;-75
2022/11/26 09:45:30;;;;;;;10.52;4.68;;;;;;;;;;5223457;28;20037;-76
2022/11/26 09:48:02;;;;;;;20.52;6.10;;;;;;;;;;5222974;28;20022;-74
2022/11/26 09:50:37;;;;;;;12.88;5.07;;;;;;;;;;5222224;28;20369;-77
2022/11/26 09:53:14;;;;;;;15.77;5.90;;;;;;;;;;5222722;28;20131;-76
2022/11/26 09:55:49;;;;;;;12.07;5.25;;;;;;;;;;5222383;28;20072;-76
2022/11/26 09:58:35;;;;;;;14.00;5.78;;;;;;;;;;5221989;28;20018;-76
2022/11/26 10:01:12;;;;;;;18.85;6.45;;;;;;;;;;5222678;28;20041;-76
2022/11/26 10:03:44;;;;;;;11.95;5.72;;;;;;;;;;5221306;28;20029;-76
2022/11/26 10:06:38;;;;;;;15.52;5.18;;;;;;;;;;5221259;28;20026;-75
2022/11/26 10:09:39;;;;;;;15.20;5.05;;;;;;;;;;5221909;28;20097;-76
2022/11/26 10:12:25;;;;;;;13.05;5.10;;;;;;;;;;5208481;28;20022;-77
2022/11/26 10:15:11;;;;;;;18.73;5.63;;;;;;;;;;5220939;28;20010;-77
2022/11/26 10:17:56;;;;;;;15.40;4.88;;;;;;;;;;5219199;28;20388;-77
2022/11/26 10:20:46;;;;;;;12.80;4.22;;;;;;;;;;5221914;28;20025;-77
2022/11/26 10:23:20;;;;;;;11.45;4.00;;;;;;;;;;5222231;28;20038;-76
2022/11/26 10:25:53;;;;;;;20.13;5.63;;;;;;;;;;5220756;28;20037;-77
2022/11/26 10:28:30;;;;;;;14.05;5.18;;;;;;;;;;5221951;28;20032;-77
2022/11/26 10:31:03;;;;;;;16.70;5.60;;;;;;;;;;5222396;28;20022;-77
2022/11/26 10:33:44;;;;;;;21.38;5.35;;;;;;;;;;5221415;28;20046;-76
2022/11/26 10:36:21;;;;;;;19.42;5.20;;;;;;;;;;5222453;28;20466;-77
2022/11/26 10:38:55;;;;;;;20.48;5.93;;;;;;;;;;5221372;28;20692;-77
2022/11/26 10:41:28;;;;;;;12.70;5.10;;;;;;;;;;5222353;28;20421;-76
2022/11/26 10:44:18;;;;;;;15.52;5.20;;;;;;;;;;5221699;28;20025;-77
2022/11/26 10:46:49;;;;;;;12.70;3.60;;;;;;;;;;5220757;28;20034;-76
2022/11/26 10:49:27;;;;;;;14.98;4.93;;;;;;;;;;5221920;28;20476;-76
2022/11/26 10:52:00;;;;;;;17.23;5.00;;;;;;;;;;5221959;28;20397;-76
2022/11/26 10:54:35;;;;;;;10.35;4.05;;;;;;;;;;5220706;28;20080;-76
2022/11/26 10:57:09;;;;;;;12.40;4.13;;;;;;;;;;5221600;28;20044;-76
2022/11/26 10:59:46;;;;;;;16.27;4.80;;;;;;;;;;5220129;28;20049;-74
2022/11/26 11:02:27;;;;;;;17.02;5.40;;;;;;;;;;5221662;28;20010;-75
2022/11/26 11:05:01;;;;;;;13.38;4.60;;;;;;;;;;5221542;28;20029;-75
2022/11/26 11:07:32;;;;;;;15.30;3.97;;;;;;;;;;5220699;28;20089;-75
2022/11/26 11:10:03;;;;;;;17.75;4.88;;;;;;;;;;5221038;28;20148;-75
2022/11/26 11:12:35;;;;;;;15.60;4.32;;;;;;;;;;5221233;28;20675;-74
2022/11/26 11:15:26;;;;;;;15.10;4.20;;;;;;;;;;5219921;28;20492;-74
2022/11/26 11:18:00;;;;;;;21.80;4.30;;;;;;;;;;5220947;28;20112;-74
2022/11/26 11:20:41;;;;;;;15.63;4.57;;;;;;;;;;5221013;28;20034;-74
2022/11/26 11:23:17;;;;;;;16.27;4.07;;;;;;;;;;5220521;28;20056;-74
2022/11/26 11:25:57;;;;;;;19.67;4.10;;;;;;;;;;5220678;28;20502;-74
2022/11/26 11:28:29;;;;;;;12.35;3.30;;;;;;;;;;5220132;28;20018;-74
2022/11/26 11:31:03;;;;;;;18.00;5.20;;;;;;;;;;5221093;28;20014;-74
2022/11/26 11:33:34;;;;;;;11.00;3.35;;;;;;;;;;5220648;28;20088;-73
2022/11/26 11:36:15;;;;;;;15.20;3.47;;;;;;;;;;5219628;28;20010;-74
2022/11/26 11:38:56;;;;;;;13.32;3.42;;;;;;;;;;5220001;28;20339;-74
2022/11/26 11:41:34;;;;;;;15.23;3.50;;;;;;;;;;5220289;28;20476;-73
2022/11/26 11:44:26;;;;;;;15.35;4.53;;;;;;;;;;5219917;28;20559;-74
2022/11/26 11:47:13;;;;;;;12.02;2.78;;;;;;;;;;5220465;28;20029;-74
2022/11/26 11:50:20;;;;;;;10.05;2.35;;;;;;;;;;5218955;28;20029;-75
2022/11/26 11:52:51;;;;;;;15.05;3.65;;;;;;;;;;5117130;29;20024;-73
2022/11/26 11:55:41;;;;;;;9.75;2.85;;;;;;;;;;5186079;28;20488;-75
2022/11/26 11:58:12;;;;;;;14.73;2.83;;;;;;;;;;5219518;28;20802;-73
2022/11/26 12:00:54;;;;;;;15.65;2.78;;;;;;;;;;5220031;28;20029;-74
2022/11/26 12:03:44;;;;;;;17.10;3.67;;;;;;;;;;5219030;28;20264;-74
2022/11/26 12:06:21;;;;;;;16.30;4.07;;;;;;;;;;5220461;28;20442;-74
2022/11/26 12:09:01;;;;;;;13.80;2.90;;;;;;;;;;5220316;28;20022;-73
2022/11/26 12:11:37;;;;;;;12.05;2.97;;;;;;;;;;5219765;28;20022;-74
2022/11/26 12:14:17;;;;;;;11.30;2.60;;;;;;;;;;5219754;28;20029;-73
2022/11/26 12:16:51;;;;;;;16.42;3.42;;;;;;;;;;5219419;28;20034;-73
2022/11/26 12:19:23;;;;;;;11.35;3.03;;;;;;;;;;5219129;28;20037;-74
2022/11/26 12:21:56;;;;;;;15.85;3.13;;;;;;;;;;5219818;28;20068;-74
2022/11/26 12:24:51;;;;;;;14.43;2.72;;;;;;;;;;5219219;28;20694;-73
2022/11/26 12:27:42;;;;;;;16.77;3.17;;;;;;;;;;5206627;28;20034;-73
2022/11/26 12:30:19;;;;;;;15.50;3.22;;;;;;;;;;5220086;28;20014;-73
2022/11/26 12:32:54;;;;;;;13.98;2.88;;;;;;;;;;5218402;28;20049;-74
2022/11/26 12:35:28;;;;;;;17.42;3.20;;;;;;;;;;5219462;28;20032;-74
2022/11/26 12:38:03;;;;;;;12.57;2.97;;;;;;;;;;5219411;28;20032;-74
2022/11/26 12:40:36;;;;;;;14.32;2.40;;;;;;;;;;5218826;28;20036;-74
2022/11/26 12:43:15;;;;;;;16.67;3.17;;;;;;;;;;5219709;28;20469;-76
2022/11/26 12:45:49;;;;;;;15.35;3.63;;;;;;;;;;5218536;28;20350;-75
2022/11/26 12:48:20;;;;;;;13.25;3.60;;;;;;;;;;5219157;28;20385;-76
2022/11/26 12:50:57;;;;;;;13.20;3.33;;;;;;;;;;5219490;28;20028;-74
2022/11/26 12:53:35;;;;;;;10.52;2.33;;;;;;;;;;5218628;28;20756;-71
2022/11/26 12:56:25;;;;;;;16.77;4.65;;;;;;;;;;5219448;28;20025;-71
2022/11/26 12:59:06;;;;;;;13.95;2.92;;;;;;;;;;5219429;28;20058;-72
2022/11/26 13:01:37;;;;;;;12.93;2.65;;;;;;;;;;5218751;28;20014;-74
2022/11/26 13:04:08;;;;;;;13.30;3.42;;;;;;;;;;5219014;28;20075;-71
2022/11/26 13:06:55;;;;;;;13.15;3.10;;;;;;;;;;5217886;28;20030;-73
2022/11/26 13:09:35;;;;;;;13.00;2.78;;;;;;;;;;5219403;28;20033;-73
2022/11/26 13:12:15;;;;;;;13.77;2.50;;;;;;;;;;5219390;28;20033;-74
2022/11/26 13:14:51;;;;;;;11.40;2.47;;;;;;;;;;5218304;28;20051;-72
2022/11/26 13:17:25;;;;;;;18.20;3.58;;;;;;;;;;5219065;28;20025;-73
2022/11/26 13:20:22;;;;;;;12.23;2.53;;;;;;;;;;5219194;28;20026;-76
2022/11/26 13:22:53;;;;;;;14.70;3.47;;;;;;;;;;5219165;28;20478;-75
2022/11/26 13:25:27;;;;;;;12.77;2.83;;;;;;;;;;5219062;28;20087;-76
2022/11/26 13:28:01;;;;;;;12.07;2.45;;;;;;;;;;5218238;28;20810;-75
2022/11/26 13:30:41;;;;;;;11.13;2.58;;;;;;;;;;5219422;28;20074;-75
2022/11/26 13:33:31;;;;;;;13.18;2.83;;;;;;;;;;5219459;28;20076;-76
2022/11/26 13:36:18;;;;;;;10.25;2.35;;;;;;;;;;5218488;28;20477;-76
2022/11/26 13:39:09;;;;;;;10.73;1.63;;;;;;;;;;5219025;28;20034;-75
2022/11/26 13:41:59;;;;;;;12.75;2.35;;;;;;;;;;5217263;28;20113;-75
2022/11/26 13:44:33;;;;;;;11.98;1.85;;;;;;;;;;5218862;28;20022;-75
2022/11/26 13:47:14;;;;;;;9.60;1.80;;;;;;;;;;5219121;28;20030;-75
2022/11/26 13:49:52;;;;;;;10.52;2.22;;;;;;;;;;5217856;28;20440;-76
2022/11/26 13:52:37;;;;;;;11.98;2.28;;;;;;;;;;5218897;28;20018;-76
2022/11/26 13:55:13;;;;;;;12.00;1.92;;;;;;;;;;5219222;28;20351;-76
2022/11/26 13:58:07;;;;;;;11.00;1.80;;;;;;;;;;5217889;28;20018;-76
2022/11/26 14:00:38;;;;;;;11.48;1.80;;;;;;;;;;5222231;28;20030;-74
2022/11/26 14:03:29;;;;;;;14.95;2.10;;;;;;;;;;5221824;28;20026;-75
2022/11/26 14:06:00;;;;;;;11.93;2.25;;;;;;;;;;5224454;28;20152;-74
2022/11/26 14:08:40;;;;;;;17.77;4.18;;;;;;;;;;5225641;28;20072;-74
2022/11/26 14:11:12;;;;;;;15.73;2.58;;;;;;;;;;5223439;28;20384;-74
2022/11/26 14:14:03;;;;;;;11.02;2.00;;;;;;;;;;5221739;28;20432;-74
2022/11/26 14:16:53;;;;;;;14.63;2.45;;;;;;;;;;5221425;28;20466;-73
2022/11/26 14:19:44;;;;;;;12.27;2.28;;;;;;;;;;5204482;28;20066;-74
2022/11/26 14:22:18;;;;;;;13.68;2.28;;;;;;;;;;5222439;28;20021;-73
2022/11/26 14:24:49;;;;;;;15.05;2.13;;;;;;;;;;5221079;28;20030;-73
2022/11/26 14:27:21;;;;;;;10.57;2.03;;;;;;;;;;5222133;28;20103;-73
2022/11/26 14:30:07;;;;;;;9.27;1.75;;;;;;;;;;5221988;28;20018;-74
2022/11/26 14:32:44;;;;;;;16.63;2.15;;;;;;;;;;5220860;28;20299;-74
2022/11/26 14:35:26;;;;;;;12.35;3.25;;;;;;;;;;5222333;28;20021;-74
2022/11/26 14:37:58;;;;;;;10.02;1.27;;;;;;;;;;5220950;28;20018;-74
2022/11/26 14:40:31;;;;;;;11.93;2.40;;;;;;;;;;5221766;28;20473;-73
2022/11/26 14:43:16;;;;;;;11.48;1.42;;;;;;;;;;5221543;28;20065;-73
2022/11/26 14:45:57;;;;;;;9.50;1.23;;;;;;;;;;5220673;28;20053;-74
2022/11/26 14:48:29;;;;;;;12.05;1.58;;;;;;;;;;5221693;28;20022;-73
2022/11/26 14:51:01;;;;;;;13.52;1.88;;;;;;;;;;5221575;28;20033;-73
2022/11/26 14:53:33;;;;;;;13.32;2.10;;;;;;;;;;5220822;28;20100;-73
2022/11/26 14:56:04;;;;;;;11.15;1.33;;;;;;;;;;5221588;28;20372;-73
2022/11/26 14:58:37;;;;;;;12.98;2.03;;;;;;;;;;5221623;28;20532;-73
2022/11/26 15:01:14;;;;;;;13.00;1.75;;;;;;;;;;5220727;28;20086;-73
2022/11/26 15:04:14;;;;;;;10.77;1.60;;;;;;;;;;5220683;28;20033;-73
2022/11/26 15:06:46;;;;;;;12.18;1.75;;;;;;;;;;5198718;28;20039;-74
2022/11/26 15:09:24;;;;;;;12.15;2.00;;;;;;;;;;5221396;28;20072;-74
2022/11/26 15:12:01;;;;;;;14.88;2.05;;;;;;;;;;5220515;28;20084;-72
2022/11/26 15:14:43;;;;;;;11.55;1.73;;;;;;;;;;5220471;28;20049;-73